Time;durP1;ratioP1;P1;durP2;ratioP2;P2;SDS_P1;SDS_P2;PMS_P1;PMS_P2;Temp;Humidity;BMP_temperature;BMP_pressure;BME280_temperature;BME280_humidity;BME280_pressure;Samples;Min_cycle;Max_cycle;Signal;HPM_P1;HPM_P2
2022/11/29 00:01:46;;;;;;;8.05;5.72;;;5.20;69.10;;;;;;5087070;28;20551;-92
2022/11/29 00:04:30;;;;;;;5.78;5.18;;;5.20;69.10;;;;;;5078668;28;20766;-92
2022/11/29 00:07:15;;;;;;;9.23;6.55;;;5.20;69.10;;;;;;5082871;28;20039;-92
2022/11/29 00:10:01;;;;;;;7.00;5.85;;;5.10;68.90;;;;;;5086675;28;20042;-95
2022/11/29 00:12:47;;;;;;;7.10;5.78;;;5.10;68.80;;;;;;5072953;28;20067;-93
2022/11/29 00:15:35;;;;;;;7.18;6.18;;;5.10;68.90;;;;;;5088791;28;20887;-91
2022/11/29 00:18:19;;;;;;;9.23;6.18;;;5.00;68.70;;;;;;5057892;28;20189;-91
2022/11/29 00:21:06;;;;;;;9.57;6.32;;;5.00;68.70;;;;;;5077223;28;20057;-93
2022/11/29 00:23:50;;;;;;;8.40;6.28;;;5.00;68.80;;;;;;5087949;28;20067;-90
2022/11/29 00:26:38;;;;;;;8.43;7.45;;;5.00;68.80;;;;;;5086746;28;20054;-90
2022/11/29 00:29:23;;;;;;;7.72;6.40;;;4.90;68.60;;;;;;5071933;28;20066;-90
2022/11/29 00:32:08;;;;;;;9.38;6.97;;;4.90;68.60;;;;;;5090762;28;20066;-90
2022/11/29 00:34:52;;;;;;;8.27;6.97;;;4.90;68.60;;;;;;5085217;28;20177;-90
2022/11/29 00:37:37;;;;;;;7.35;6.30;;;4.90;68.70;;;;;;5052011;28;20392;-88
2022/11/29 00:40:22;;;;;;;7.68;6.55;;;4.90;68.70;;;;;;5085182;28;20345;-89
2022/11/29 00:43:06;;;;;;;7.65;6.15;;;4.80;68.50;;;;;;5085162;28;20047;-89
2022/11/29 00:45:51;;;;;;;8.07;6.47;;;4.90;68.70;;;;;;5076355;28;20036;-89
2022/11/29 00:48:36;;;;;;;7.85;6.30;;;4.80;68.60;;;;;;5067177;28;20058;-89
2022/11/29 00:51:20;;;;;;;8.90;6.53;;;4.80;68.50;;;;;;5079404;28;20047;-88
2022/11/29 00:54:05;;;;;;;7.53;6.70;;;4.80;68.50;;;;;;5064047;28;20081;-89
2022/11/29 00:56:49;;;;;;;9.35;6.82;;;4.80;68.50;;;;;;5072049;28;20128;-88
2022/11/29 00:59:34;;;;;;;8.02;6.13;;;4.80;68.50;;;;;;5085670;28;20586;-87
2022/11/29 01:02:18;;;;;;;6.95;6.15;;;4.80;68.50;;;;;;5075480;28;20048;-91
2022/11/29 01:05:03;;;;;;;8.73;6.18;;;4.80;68.40;;;;;;5073191;28;20096;-87
2022/11/29 01:07:48;;;;;;;6.22;5.28;;;4.70;68.30;;;;;;5079869;28;20128;-87
2022/11/29 01:10:33;;;;;;;6.88;5.70;;;4.70;68.20;;;;;;5083512;28;20083;-88
2022/11/29 01:13:17;;;;;;;7.15;5.05;;;4.70;68.30;;;;;;5079240;28;20120;-88
2022/11/29 01:16:03;;;;;;;6.25;5.30;;;4.70;68.20;;;;;;5078116;28;20150;-89
2022/11/29 01:18:48;;;;;;;5.85;5.25;;;4.60;68.10;;;;;;5064930;28;20174;-90
2022/11/29 01:21:33;;;;;;;5.20;4.70;;;4.60;68.10;;;;;;5083683;28;20181;-91
2022/11/29 01:24:18;;;;;;;5.30;4.80;;;4.60;68.10;;;;;;5072531;28;20197;-91
2022/11/29 01:27:02;;;;;;;5.57;4.65;;;4.60;68.20;;;;;;5084491;28;20292;-89
2022/11/29 01:29:47;;;;;;;5.47;4.70;;;4.50;68.00;;;;;;5065493;28;20055;-89
2022/11/29 01:32:31;;;;;;;6.78;5.00;;;4.50;68.00;;;;;;5056775;28;20391;-88
2022/11/29 01:35:16;;;;;;;6.28;4.95;;;4.50;68.00;;;;;;5080602;28;20043;-90
2022/11/29 01:38:01;;;;;;;5.80;5.13;;;4.50;68.00;;;;;;5080673;28;20034;-90
2022/11/29 01:40:56;;;;;;;4.70;4.30;;;4.50;68.00;;;;;;5080675;28;20043;-89
2022/11/29 01:43:58;;;;;;;5.97;5.47;;;4.50;68.00;;;;;;5084254;28;20078;-92
2022/11/29 01:46:45;;;;;;;7.13;5.43;;;4.40;67.80;;;;;;5073739;28;20128;-91
2022/11/29 01:49:41;;;;;;;5.32;4.82;;;4.50;68.00;;;;;;5083887;28;20063;-87
2022/11/29 01:52:28;;;;;;;6.57;5.30;;;4.40;67.90;;;;;;5066969;28;20075;-88
2022/11/29 01:55:13;;;;;;;7.00;5.80;;;4.40;67.80;;;;;;5071966;28;20043;-88
2022/11/29 01:57:59;;;;;;;7.35;5.35;;;4.40;67.80;;;;;;5084553;28;20050;-88
2022/11/29 02:00:43;;;;;;;7.10;5.65;;;4.40;67.80;;;;;;5075017;28;20128;-87
2022/11/29 02:03:28;;;;;;;6.13;5.10;;;4.40;67.90;;;;;;5083184;28;20069;-87
2022/11/29 02:06:14;;;;;;;5.32;4.82;;;4.40;67.90;;;;;;5083819;28;20066;-86
2022/11/29 02:08:59;;;;;;;5.45;4.95;;;4.40;67.90;;;;;;5078859;28;20218;-86
2022/11/29 02:12:02;;;;;;;5.80;4.90;;;4.30;67.70;;;;;;5082863;28;20427;-85
2022/11/29 02:15:14;;;;;;;5.82;5.22;;;4.30;67.70;;;;;;5082132;28;20277;-86
2022/11/29 02:18:06;;;;;;;6.03;5.13;;;4.30;67.70;;;;;;5068606;28;20116;-88
2022/11/29 02:21:23;;;;;;;7.35;5.03;;;4.30;67.70;;;;;;5066994;28;20484;-86
2022/11/29 02:24:33;;;;;;;7.00;5.13;;;4.30;67.70;;;;;;5082666;28;20198;-88
2022/11/29 02:27:23;;;;;;;5.68;5.00;;;4.30;67.70;;;;;;5084098;28;20522;-89
2022/11/29 02:30:32;;;;;;;6.18;5.20;;;4.30;67.70;;;;;;5080421;28;20051;-89
2022/11/29 02:33:36;;;;;;;6.03;5.10;;;4.20;67.60;;;;;;5062527;28;20081;-90
2022/11/29 02:36:40;;;;;;;6.05;5.13;;;4.20;67.60;;;;;;5081853;28;20589;-86
2022/11/29 02:39:47;;;;;;;5.30;4.80;;;4.20;67.60;;;;;;5080318;28;20303;-87
2022/11/29 02:42:55;;;;;;;6.93;5.45;;;4.20;67.60;;;;;;5073224;28;20058;-86
2022/11/29 02:45:40;;;;;;;6.00;5.28;;;4.20;67.60;;;;;;5063911;28;20138;-89
2022/11/29 02:48:43;;;;;;;6.28;5.30;;;4.10;67.50;;;;;;5084940;28;20101;-90
2022/11/29 02:51:48;;;;;;;6.35;5.07;;;4.10;67.50;;;;;;5085656;28;20047;-92
2022/11/29 02:54:37;;;;;;;5.20;4.70;;;4.10;67.50;;;;;;5070246;28;20097;-92
2022/11/29 02:57:42;;;;;;;6.50;5.13;;;4.10;67.50;;;;;;5087740;28;20043;-90
2022/11/29 03:00:27;;;;;;;5.88;5.25;;;4.10;67.50;;;;;;5085128;28;20042;-88
2022/11/29 03:03:37;;;;;;;6.32;5.68;;;4.10;67.50;;;;;;5089784;28;20367;-87
2022/11/29 03:07:03;;;;;;;6.25;5.55;;;4.10;67.50;;;;;;5090273;28;20078;-88
2022/11/29 03:09:59;;;;;;;5.85;5.00;;;4.10;67.50;;;;;;5078453;28;20142;-88
2022/11/29 03:12:50;;;;;;;6.80;4.75;;;4.00;67.30;;;;;;5085851;28;20406;-88
2022/11/29 03:15:49;;;;;;;6.07;5.30;;;4.00;67.30;;;;;;5083008;28;20502;-88
2022/11/29 03:19:04;;;;;;;6.50;5.45;;;4.00;67.30;;;;;;5092570;28;20051;-87
2022/11/29 03:22:40;;;;;;;5.63;5.00;;;4.00;67.30;;;;;;5081472;28;20035;-85
2022/11/29 03:25:36;;;;;;;5.45;4.55;;;4.00;67.30;;;;;;5055359;28;20139;-86
2022/11/29 03:28:37;;;;;;;7.90;5.80;;;4.00;67.20;;;;;;5086160;28;20536;-85
2022/11/29 03:31:34;;;;;;;7.57;5.95;;;4.00;67.20;;;;;;5082143;28;20458;-88
2022/11/29 03:34:50;;;;;;;7.28;5.53;;;4.00;67.30;;;;;;5091109;28;20039;-88
2022/11/29 03:37:42;;;;;;;6.95;5.40;;;3.90;67.10;;;;;;5082255;28;20047;-88
2022/11/29 03:40:53;;;;;;;6.32;5.60;;;3.90;67.10;;;;;;5076797;28;20124;-90
2022/11/29 03:43:56;;;;;;;7.97;5.45;;;3.90;67.10;;;;;;5074612;28;20127;-89
2022/11/29 03:46:41;;;;;;;8.05;6.28;;;3.90;67.20;;;;;;5087007;28;20055;-88
2022/11/29 03:49:32;;;;;;;5.93;4.78;;;3.90;67.20;;;;;;5089913;28;20411;-90
2022/11/29 03:52:41;;;;;;;7.25;5.55;;;3.90;67.10;;;;;;5083061;28;20043;-88
2022/11/29 03:55:32;;;;;;;8.80;6.40;;;3.90;67.10;;;;;;5079293;28;20524;-89
2022/11/29 03:58:40;;;;;;;7.32;5.45;;;3.80;67.00;;;;;;5074040;28;20043;-88
2022/11/29 04:01:53;;;;;;;7.13;5.25;;;3.80;67.00;;;;;;5089715;28;20081;-89
2022/11/29 04:05:08;;;;;;;7.63;6.25;;;3.80;67.00;;;;;;5086406;28;20116;-89
2022/11/29 04:08:41;;;;;;;8.82;6.60;;;3.80;67.00;;;;;;5087450;28;20415;-90
2022/11/29 04:11:53;;;;;;;8.43;5.68;;;3.80;67.00;;;;;;5072147;28;20058;-89
2022/11/29 04:14:37;;;;;;;6.40;5.72;;;3.80;66.90;;;;;;5076563;28;20136;-88
2022/11/29 04:18:04;;;;;;;6.95;6.13;;;3.80;66.90;;;;;;5068097;28;20403;-91
2022/11/29 04:20:58;;;;;;;7.35;5.47;;;3.80;67.00;;;;;;5094041;28;20126;-90
2022/11/29 04:24:01;;;;;;;7.97;6.25;;;3.80;67.00;;;;;;5094046;28;20046;-92
2022/11/29 04:27:13;;;;;;;8.30;5.32;;;3.80;67.00;;;;;;5082150;28;20043;-86
2022/11/29 04:30:03;;;;;;;6.57;5.55;;;3.70;66.80;;;;;;5081251;28;20066;-87
2022/11/29 04:33:09;;;;;;;8.13;6.22;;;3.70;66.80;;;;;;5077878;28;20399;-87
2022/11/29 04:35:59;;;;;;;7.00;5.28;;;3.70;66.90;;;;;;5080360;28;20093;-86
2022/11/29 04:39:05;;;;;;;7.15;5.68;;;3.70;66.90;;;;;;5092161;28;20557;-87
2022/11/29 04:42:00;;;;;;;7.30;6.00;;;3.60;66.70;;;;;;5086135;28;20403;-90
2022/11/29 04:45:09;;;;;;;8.23;5.60;;;3.70;66.90;;;;;;5084153;28;20123;-88
2022/11/29 04:48:02;;;;;;;10.73;5.82;;;3.70;66.90;;;;;;5086670;28;20054;-88
2022/11/29 04:51:18;;;;;;;9.27;6.57;;;3.60;66.70;;;;;;5057530;28;20093;-89
2022/11/29 04:54:08;;;;;;;7.82;5.55;;;3.60;66.70;;;;;;5064418;28;20108;-89
2022/11/29 04:57:15;;;;;;;6.88;4.93;;;3.60;66.70;;;;;;5087865;28;20439;-90
2022/11/29 05:00:08;;;;;;;6.50;5.03;;;3.60;66.70;;;;;;5086783;28;20552;-89
2022/11/29 05:03:05;;;;;;;7.07;5.90;;;3.60;66.70;;;;;;5087235;28;20043;-88
2022/11/29 05:06:04;;;;;;;8.65;5.30;;;3.60;66.80;;;;;;5075159;28;20051;-87
2022/11/29 05:08:49;;;;;;;8.93;6.57;;;3.60;66.80;;;;;;5085434;28;20403;-90
2022/11/29 05:11:50;;;;;;;9.23;5.80;;;3.60;66.80;;;;;;5088597;28;20047;-90
2022/11/29 05:14:40;;;;;;;8.77;5.43;;;3.60;66.80;;;;;;5088957;28;20108;-90
2022/11/29 05:18:03;;;;;;;8.73;5.82;;;3.60;66.80;;;;;;5067282;28;20039;-89
2022/11/29 05:21:20;;;;;;;8.25;5.82;;;3.70;67.00;;;;;;5084775;28;20066;-88
2022/11/29 05:24:10;;;;;;;9.10;6.57;;;3.70;66.90;;;;;;5054507;28;20050;-86
2022/11/29 05:27:14;;;;;;;9.18;6.68;;;3.70;66.80;;;;;;5088073;28;20089;-88
2022/11/29 05:30:18;;;;;;;9.98;6.70;;;3.70;66.80;;;;;;5072820;28;20502;-88
2022/11/29 05:33:26;;;;;;;11.00;7.03;;;3.80;67.00;;;;;;5078246;28;20493;-85
2022/11/29 05:36:41;;;;;;;11.48;6.63;;;3.80;67.00;;;;;;5079769;28;20514;-88
2022/11/29 05:39:52;;;;;;;9.85;7.28;;;3.90;67.10;;;;;;5074110;28;20058;-89
2022/11/29 05:43:10;;;;;;;12.13;7.07;;;3.90;67.00;;;;;;5080303;28;20114;-95
2022/11/29 05:46:03;;;;;;;11.80;7.30;;;4.00;67.20;;;;;;5070129;28;20652;-86
2022/11/29 05:48:50;;;;;;;11.15;7.93;;;4.00;67.10;;;;;;5077818;28;20059;-86
2022/11/29 05:51:51;;;;;;;11.90;7.45;;;4.10;67.30;;;;;;5081190;28;20104;-86
2022/11/29 05:55:04;;;;;;;12.95;7.97;;;4.10;67.30;;;;;;5076447;28;20059;-86
2022/11/29 05:58:21;;;;;;;10.93;7.43;;;4.20;67.50;;;;;;5085843;28;20105;-87
2022/11/29 06:01:17;;;;;;;10.38;8.02;;;4.20;67.40;;;;;;5062240;28;20388;-89
2022/11/29 06:04:33;;;;;;;11.35;7.65;;;4.30;67.50;;;;;;5085216;28;20207;-88
2022/11/29 06:07:44;;;;;;;14.00;8.82;;;4.30;67.50;;;;;;5080266;28;20112;-87
2022/11/29 06:10:32;;;;;;;12.32;8.70;;;4.40;67.60;;;;;;5063929;28;20094;-88
2022/11/29 06:13:25;;;;;;;13.13;7.72;;;4.40;67.70;;;;;;5084989;28;20043;-91
2022/11/29 06:16:22;;;;;;;12.32;8.50;;;4.50;67.80;;;;;;5083698;28;20109;-89
2022/11/29 06:19:36;;;;;;;11.15;8.60;;;4.40;67.60;;;;;;5081824;28;20194;-86
2022/11/29 06:22:43;;;;;;;11.38;8.43;;;4.50;67.80;;;;;;5082868;28;20119;-87
2022/11/29 06:25:57;;;;;;;12.55;8.55;;;4.50;67.80;;;;;;5072607;28;20605;-90
2022/11/29 06:29:00;;;;;;;10.00;7.30;;;4.50;67.80;;;;;;5076742;28;20050;-87
2022/11/29 06:31:51;;;;;;;;;;;4.60;68.00;;;;;;5075042;28;20345;-89
2022/11/29 06:34:50;;;;;;;9.68;7.57;;;4.50;67.80;;;;;;5087598;28;19919;-89
2022/11/29 06:37:39;;;;;;;10.73;7.68;;;4.50;67.80;;;;;;5082344;28;20056;-85
2022/11/29 06:40:24;;;;;;;8.25;6.88;;;4.60;68.00;;;;;;5072714;28;20047;-86
2022/11/29 06:43:08;;;;;;;9.23;7.68;;;4.60;68.00;;;;;;5075707;28;20151;-85
2022/11/29 06:46:17;;;;;;;7.57;6.35;;;4.60;68.10;;;;;;5084595;28;20236;-91
2022/11/29 06:49:11;;;;;;;8.38;7.00;;;4.50;68.00;;;;;;5085002;28;20198;-91
2022/11/29 06:52:30;;;;;;;8.05;7.22;;;4.50;67.90;;;;;;5090310;28;20051;-90
2022/11/29 06:55:35;;;;;;;7.50;6.25;;;4.60;68.20;;;;;;5081275;28;20401;-83
2022/11/29 06:58:41;;;;;;;7.47;6.05;;;4.60;68.20;;;;;;5076630;28;20044;-85
2022/11/29 07:01:45;;;;;;;6.68;6.05;;;4.50;68.00;;;;;;5089031;28;20046;-82
2022/11/29 07:04:50;;;;;;;8.82;6.82;;;4.50;68.00;;;;;;5085988;28;20062;-80
2022/11/29 07:07:35;;;;;;;9.57;7.32;;;4.50;68.00;;;;;;5086014;28;20085;-82
2022/11/29 07:10:20;;;;;;;7.65;6.53;;;4.40;67.90;;;;;;5087993;28;20093;-80
2022/11/29 07:13:05;;;;;;;7.45;6.70;;;4.40;67.90;;;;;;5086982;28;20039;-84
2022/11/29 07:16:10;;;;;;;6.85;6.18;;;4.40;67.90;;;;;;5092621;28;20441;-90
2022/11/29 07:19:20;;;;;;;6.13;5.53;;;4.40;68.00;;;;;;5087721;28;20070;-83
2022/11/29 07:22:53;;;;;;;6.93;6.20;;;4.30;67.90;;;;;;5101329;28;20047;-84
2022/11/29 07:26:00;;;;;;;7.10;6.40;;;4.30;67.90;;;;;;5091358;28;20050;-87
2022/11/29 07:29:06;;;;;;;9.00;7.25;;;4.30;67.90;;;;;;5099688;28;20035;-86
2022/11/29 07:31:56;;;;;;;7.82;6.40;;;4.20;67.80;;;;;;5103361;28;20587;-94
2022/11/29 07:34:58;;;;;;;7.97;7.18;;;4.20;67.80;;;;;;5084271;28;20113;-87
2022/11/29 07:38:22;;;;;;;7.22;6.45;;;4.10;67.70;;;;;;5059808;28;20109;-89
2022/11/29 07:41:19;;;;;;;6.75;6.07;;;4.10;67.70;;;;;;5074496;28;20150;-85
2022/11/29 07:44:19;;;;;;;7.18;6.47;;;4.10;67.70;;;;;;5084149;28;20039;-82
2022/11/29 07:47:03;;;;;;;6.50;5.65;;;4.10;67.70;;;;;;5076001;28;20117;-81
2022/11/29 07:49:48;;;;;;;7.03;6.25;;;4.10;67.80;;;;;;5083856;28;20541;-81
2022/11/29 07:52:33;;;;;;;7.07;6.13;;;4.10;67.80;;;;;;5088433;28;20030;-84
2022/11/29 07:55:20;;;;;;;7.40;6.65;;;4.10;67.80;;;;;;5087597;28;20046;-83
2022/11/29 07:58:05;;;;;;;7.15;6.45;;;4.10;67.80;;;;;;5084312;28;20032;-82
2022/11/29 08:00:49;;;;;;;7.78;6.97;;;4.10;67.80;;;;;;5084612;28;20043;-82
2022/11/29 08:03:34;;;;;;;8.15;6.45;;;4.20;67.90;;;;;;5087526;28;20043;-83
2022/11/29 08:06:25;;;;;;;8.68;6.72;;;4.20;67.90;;;;;;5086296;28;20039;-82
2022/11/29 08:09:10;;;;;;;7.72;6.93;;;4.20;67.90;;;;;;5085544;28;20093;-81
2022/11/29 08:11:55;;;;;;;8.27;7.32;;;4.20;67.80;;;;;;5091250;28;20062;-95
2022/11/29 08:14:39;;;;;;;7.40;6.50;;;4.20;67.80;;;;;;5089027;28;20506;-93
2022/11/29 08:17:24;;;;;;;7.28;6.57;;;4.30;67.90;;;;;;5075907;28;20138;-84
2022/11/29 08:20:11;;;;;;;6.80;6.10;;;4.30;67.90;;;;;;5078049;28;20443;-87
2022/11/29 08:22:58;;;;;;;6.93;6.25;;;4.30;67.80;;;;;;5083975;28;20545;-85
2022/11/29 08:25:44;;;;;;;7.80;6.55;;;4.40;68.40;;;;;;5086753;28;20051;-90
2022/11/29 08:28:29;;;;;;;7.30;6.18;;;4.40;67.90;;;;;;5086107;28;20074;-91
2022/11/29 08:31:13;;;;;;;6.30;5.57;;;4.40;67.80;;;;;;5088074;28;20058;-91
2022/11/29 08:33:58;;;;;;;7.95;6.35;;;4.40;67.70;;;;;;5088870;28;20117;-93
2022/11/29 08:36:43;;;;;;;6.72;5.88;;;4.50;67.90;;;;;;5087071;28;20100;-91
2022/11/29 08:39:28;;;;;;;7.07;5.80;;;4.50;67.80;;;;;;5094936;28;20074;-93
2022/11/29 08:42:12;;;;;;;7.72;6.63;;;4.60;67.90;;;;;;5067423;28;20051;-91
2022/11/29 08:44:57;;;;;;;7.97;6.22;;;4.60;67.90;;;;;;5086108;28;20568;-93
2022/11/29 08:47:41;;;;;;;8.43;6.45;;;4.70;68.00;;;;;;5084034;28;20120;-93
2022/11/29 08:50:26;;;;;;;7.60;6.65;;;4.80;68.10;;;;;;5089495;28;20050;-92
2022/11/29 08:56:19;;;;;;;7.03;5.95;;;4.90;68.10;;;;;;5083520;28;20039;-84
2022/11/29 08:59:04;;;;;;;7.60;6.15;;;4.90;68.00;;;;;;5084624;28;20530;-90
2022/11/29 09:01:49;;;;;;;6.97;5.93;;;5.00;68.10;;;;;;5070415;28;20039;-92
2022/11/29 09:04:34;;;;;;;11.50;6.78;;;5.00;68.00;;;;;;5084489;28;20047;-92
2022/11/29 09:07:18;;;;;;;10.02;6.78;;;5.10;68.10;;;;;;5080229;28;20048;-89
2022/11/29 09:10:06;;;;;;;9.27;6.63;;;5.20;68.30;;;;;;5078211;28;20051;-83
2022/11/29 09:12:51;;;;;;;8.18;6.00;;;5.30;68.40;;;;;;5084401;28;20605;-86
2022/11/29 09:15:40;;;;;;;8.23;6.45;;;5.40;68.40;;;;;;5083642;28;20047;-85
2022/11/29 09:18:27;;;;;;;8.77;6.57;;;5.50;68.40;;;;;;5083069;28;20092;-85
2022/11/29 09:21:13;;;;;;;7.25;5.80;;;5.50;68.40;;;;;;5065866;28;20085;-86
2022/11/29 09:24:00;;;;;;;7.30;6.50;;;5.60;68.50;;;;;;5081246;28;20423;-86
2022/11/29 09:26:47;;;;;;;7.30;6.13;;;5.60;68.30;;;;;;5066011;28;20046;-85
2022/11/29 09:29:32;;;;;;;7.28;5.97;;;5.70;68.40;;;;;;5082962;28;20121;-83
2022/11/29 09:32:16;;;;;;;6.18;5.30;;;5.80;68.50;;;;;;5083542;28;20054;-83
2022/11/29 09:35:01;;;;;;;7.65;6.07;;;5.80;68.40;;;;;;5084989;28;20452;-93
2022/11/29 09:37:45;;;;;;;7.78;6.05;;;5.90;68.50;;;;;;5089449;28;20088;-90
2022/11/29 09:40:41;;;;;;;6.82;5.55;;;5.90;68.30;;;;;;5085402;28;20074;-84
2022/11/29 09:43:36;;;;;;;9.02;6.38;;;5.90;68.30;;;;;;5075174;28;20169;-85
2022/11/29 09:46:21;;;;;;;9.60;6.82;;;6.00;68.50;;;;;;5079382;28;20112;-83
2022/11/29 09:49:47;;;;;;;7.90;6.32;;;6.10;68.80;;;;;;5068774;28;20047;-83
2022/11/29 09:52:50;;;;;;;8.57;6.15;;;6.20;69.00;;;;;;5075450;28;20190;-84
2022/11/29 09:56:06;;;;;;;6.70;5.75;;;6.30;68.90;;;;;;5075817;28;20669;-85
2022/11/29 09:59:00;;;;;;;7.43;6.05;;;6.40;69.00;;;;;;5074830;28;20043;-84
2022/11/29 10:02:11;;;;;;;6.72;5.75;;;6.50;69.10;;;;;;5071697;28;20047;-85
2022/11/29 10:05:07;;;;;;;8.45;6.43;;;6.50;68.90;;;;;;5074399;28;20947;-85
2022/11/29 10:08:05;;;;;;;11.88;7.13;;;6.70;69.40;;;;;;5080817;28;20158;-86
2022/11/29 10:10:57;;;;;;;10.18;7.63;;;6.90;70.00;;;;;;5076574;28;20055;-86
2022/11/29 10:13:48;;;;;;;9.55;7.00;;;7.30;70.50;;;;;;5084342;28;20039;-89
2022/11/29 10:16:51;;;;;;;10.25;6.30;;;7.60;70.40;;;;;;5071191;28;20510;-86
2022/11/29 10:19:43;;;;;;;7.20;5.93;;;8.00;70.70;;;;;;5079375;28;20124;-88
2022/11/29 10:22:34;;;;;;;8.37;6.47;;;8.20;70.60;;;;;;5088173;28;20049;-82
2022/11/29 10:25:32;;;;;;;7.15;5.32;;;8.40;70.70;;;;;;5092632;28;20113;-78
2022/11/29 10:28:26;;;;;;;6.20;5.60;;;8.50;70.60;;;;;;5088894;28;20062;-81
2022/11/29 10:31:23;;;;;;;6.00;5.40;;;8.60;70.50;;;;;;5087974;28;20286;-79
2022/11/29 10:34:30;;;;;;;6.05;5.38;;;8.70;70.40;;;;;;5088222;28;20061;-79
2022/11/29 10:37:20;;;;;;;6.10;5.47;;;8.70;70.40;;;;;;5088731;28;20043;-80
2022/11/29 10:40:15;;;;;;;6.28;5.65;;;8.70;70.40;;;;;;5082136;28;20261;-79
2022/11/29 10:43:01;;;;;;;6.45;5.75;;;8.80;70.70;;;;;;5089720;28;20054;-79
2022/11/29 10:45:49;;;;;;;6.30;5.70;;;8.70;70.40;;;;;;5084315;28;20043;-80
2022/11/29 10:48:34;;;;;;;5.82;5.22;;;8.80;70.40;;;;;;5088039;28;20581;-79
2022/11/29 10:51:19;;;;;;;6.10;5.47;;;8.90;70.40;;;;;;5085499;28;20069;-81
2022/11/29 10:54:28;;;;;;;6.03;5.43;;;8.90;70.20;;;;;;5087233;28;20332;-79
2022/11/29 10:57:15;;;;;;;5.82;5.22;;;8.90;70.00;;;;;;5084086;28;20109;-79
2022/11/29 11:00:09;;;;;;;5.93;5.15;;;8.90;70.00;;;;;;5087311;28;20065;-79
2022/11/29 11:02:53;;;;;;;6.45;5.65;;;8.90;70.00;;;;;;5086257;28;20135;-82
2022/11/29 11:05:38;;;;;;;6.78;6.10;;;8.90;70.00;;;;;;5087533;28;20089;-83
2022/11/29 11:08:25;;;;;;;7.13;6.32;;;8.90;69.90;;;;;;5072653;28;20042;-81
2022/11/29 11:11:10;;;;;;;7.95;7.10;;;9.00;70.00;;;;;;5086804;28;20047;-82
2022/11/29 11:14:01;;;;;;;7.60;6.80;;;8.90;69.80;;;;;;5086958;28;20039;-88
2022/11/29 11:16:45;;;;;;;7.93;7.03;;;8.90;69.70;;;;;;5072323;28;20039;-81
2022/11/29 11:19:32;;;;;;;7.90;7.07;;;9.00;69.80;;;;;;5077773;28;20086;-86
2022/11/29 11:22:22;;;;;;;7.28;6.57;;;8.90;69.60;;;;;;5086652;28;20430;-93
2022/11/29 11:25:26;;;;;;;9.23;6.88;;;9.00;69.70;;;;;;5087993;28;20070;-88
2022/11/29 11:28:19;;;;;;;;;;;9.00;69.60;;;;;;5086365;28;20089;-90
2022/11/29 11:31:07;;;;;;;8.35;7.22;;;9.10;69.60;;;;;;5071995;28;19998;-94
2022/11/29 11:33:52;;;;;;;8.40;7.47;;;9.10;69.50;;;;;;5062912;28;20042;-94
2022/11/29 11:36:36;;;;;;;7.53;6.72;;;9.20;69.50;;;;;;5046022;28;20059;-88
2022/11/29 11:39:23;;;;;;;7.55;6.85;;;9.20;69.40;;;;;;5086073;28;20518;-87
2022/11/29 11:45:34;;;;;;;7.15;6.45;;;9.20;69.20;;;;;;5081983;28;20114;-90
2022/11/29 11:48:19;;;;;;;6.28;5.75;;;9.20;69.10;;;;;;5083808;28;20057;-83
2022/11/29 11:51:03;;;;;;;7.03;6.32;;;9.30;69.20;;;;;;5082502;28;20055;-82
2022/11/29 11:53:53;;;;;;;6.97;6.32;;;9.30;69.20;;;;;;5086080;28;20074;-88
2022/11/29 11:56:37;;;;;;;7.25;5.82;;;9.30;69.00;;;;;;5085356;28;20689;-90
2022/11/29 11:59:24;;;;;;;8.18;6.75;;;9.40;69.00;;;;;;5086010;28;20490;-87
2022/11/29 12:02:25;;;;;;;7.35;6.53;;;9.40;68.90;;;;;;5084984;28;20054;-83
2022/11/29 12:05:18;;;;;;;6.97;6.07;;;9.40;68.70;;;;;;5075585;28;20038;-89
2022/11/29 12:08:03;;;;;;;7.15;6.45;;;9.50;68.90;;;;;;5090099;28;20058;-89
2022/11/29 12:10:53;;;;;;;8.70;6.88;;;9.60;69.10;;;;;;5073729;28;20055;-90
2022/11/29 12:13:42;;;;;;;7.07;6.35;;;9.70;69.10;;;;;;5085516;28;20474;-88
2022/11/29 12:16:33;;;;;;;7.57;6.78;;;9.80;69.10;;;;;;5078761;28;20083;-88
2022/11/29 12:19:22;;;;;;;7.55;6.43;;;9.80;69.00;;;;;;5069862;28;20039;-88
2022/11/29 12:22:12;;;;;;;8.00;6.78;;;9.80;68.90;;;;;;5084387;28;20124;-92
2022/11/29 12:25:02;;;;;;;7.30;6.60;;;9.90;68.90;;;;;;5094519;28;20167;-93
2022/11/29 12:28:12;;;;;;;6.65;5.95;;;9.80;68.60;;;;;;5088958;28;20116;-94
2022/11/29 12:30:59;;;;;;;6.90;6.20;;;9.80;68.60;;;;;;5069821;28;20140;-91
2022/11/29 12:34:02;;;;;;;7.07;6.22;;;9.80;68.70;;;;;;5073231;28;20063;-90
2022/11/29 12:37:11;;;;;;;6.82;5.97;;;9.80;68.60;;;;;;5068421;28;20102;-90
2022/11/29 12:40:19;;;;;;;7.32;6.28;;;9.80;68.50;;;;;;5066316;28;20199;-89
2022/11/29 12:43:15;;;;;;;6.90;5.70;;;9.80;68.30;;;;;;5086194;28;20157;-88
2022/11/29 12:46:18;;;;;;;6.72;5.80;;;9.80;68.30;;;;;;5081835;28;20093;-86
2022/11/29 12:49:13;;;;;;;5.93;5.25;;;9.80;68.20;;;;;;5071471;28;20091;-90
2022/11/29 12:52:24;;;;;;;6.55;5.95;;;9.90;68.30;;;;;;5073710;28;20059;-89
2022/11/29 12:55:29;;;;;;;6.18;5.57;;;9.90;68.10;;;;;;5074692;28;20043;-91
2022/11/29 12:58:23;;;;;;;6.47;5.47;;;9.90;68.00;;;;;;5072717;28;20173;-91
2022/11/29 13:01:39;;;;;;;6.47;5.82;;;9.90;68.00;;;;;;5070363;28;20047;-91
2022/11/29 13:04:35;;;;;;;6.30;5.72;;;9.90;67.80;;;;;;5085068;28;20069;-91
2022/11/29 13:07:49;;;;;;;6.53;5.93;;;9.90;67.80;;;;;;5066058;28;20075;-92
2022/11/29 13:11:03;;;;;;;6.70;6.05;;;9.80;67.50;;;;;;5070321;28;20055;-91
2022/11/29 13:14:19;;;;;;;7.45;5.90;;;9.80;67.60;;;;;;5077778;28;20035;-90
2022/11/29 13:17:23;;;;;;;5.97;5.47;;;9.80;67.70;;;;;;5081857;28;20062;-91
2022/11/29 13:20:41;;;;;;;6.50;5.82;;;9.80;67.80;;;;;;5079955;28;20065;-91
2022/11/29 13:23:43;;;;;;;6.63;6.03;;;9.70;67.50;;;;;;5077550;28;20513;-91
2022/11/29 13:26:29;;;;;;;7.43;6.27;;;9.80;67.60;;;;;;5084906;28;20117;-91
2022/11/29 13:29:16;;;;;;;6.38;5.70;;;9.80;67.60;;;;;;5059043;28;20043;-92
2022/11/29 13:32:05;;;;;;;5.82;5.32;;;9.80;67.60;;;;;;5070393;28;20043;-92
2022/11/29 13:34:52;;;;;;;5.53;5.03;;;9.80;67.50;;;;;;5087426;28;20498;-95
2022/11/29 13:37:48;;;;;;;5.65;5.05;;;9.80;67.30;;;;;;5061055;28;20059;-92
2022/11/29 13:40:46;;;;;;;6.57;6.00;;;9.90;67.40;;;;;;5088142;28;20244;-90
2022/11/29 13:44:11;;;;;;;5.97;5.38;;;9.90;67.30;;;;;;5100531;28;20434;-93
2022/11/29 13:47:17;;;;;;;5.15;4.65;;;9.90;67.20;;;;;;5099646;28;20363;-91
2022/11/29 13:50:04;;;;;;;5.22;4.72;;;9.90;67.20;;;;;;5070523;28;20066;-93
2022/11/29 13:52:49;;;;;;;5.75;4.93;;;9.90;67.20;;;;;;5087656;28;20038;-92
2022/11/29 13:55:59;;;;;;;5.50;5.00;;;9.90;67.10;;;;;;5067926;28;20059;-94
2022/11/29 13:58:45;;;;;;;5.55;5.00;;;9.90;67.00;;;;;;5102017;28;20035;-93
2022/11/29 14:01:46;;;;;;;5.60;5.10;;;9.90;67.00;;;;;;5086044;28;20143;-95
2022/11/29 14:04:30;;;;;;;6.13;5.53;;;9.80;66.80;;;;;;5085395;28;20051;-95
2022/11/29 14:07:18;;;;;;;5.90;5.30;;;9.80;66.90;;;;;;5074612;28;20336;-96
2022/11/29 14:10:06;;;;;;;6.07;5.57;;;9.70;66.80;;;;;;5091404;28;20046;-94
2022/11/29 14:12:55;;;;;;;5.68;5.18;;;9.70;66.90;;;;;;5086071;28;20042;-92
2022/11/29 14:15:40;;;;;;;6.10;5.50;;;9.60;66.80;;;;;;5088596;28;20043;-92
2022/11/29 14:18:39;;;;;;;6.38;5.78;;;9.50;66.80;;;;;;5075008;28;20042;-93
2022/11/29 14:21:23;;;;;;;6.20;5.60;;;9.50;66.80;;;;;;5079171;28;20116;-95
2022/11/29 14:24:34;;;;;;;6.55;5.95;;;9.50;66.90;;;;;;5088487;28;20073;-95
2022/11/29 14:27:18;;;;;;;8.20;7.05;;;9.40;66.70;;;;;;5094683;28;20462;-94
2022/11/29 14:30:30;;;;;;;8.32;6.55;;;9.40;66.70;;;;;;5088244;28;20059;-95
2022/11/29 14:33:37;;;;;;;7.80;6.78;;;9.40;66.60;;;;;;5078955;28;20516;-93
2022/11/29 14:36:38;;;;;;;8.55;7.43;;;9.40;66.60;;;;;;5082217;28;20054;-89
2022/11/29 14:39:40;;;;;;;8.88;7.45;;;9.40;66.70;;;;;;5085275;28;20470;-89
2022/11/29 14:42:26;;;;;;;9.55;7.63;;;9.30;66.60;;;;;;5087252;28;20081;-94
2022/11/29 14:45:31;;;;;;;7.95;6.82;;;9.30;66.60;;;;;;5097039;28;20039;-91
2022/11/29 14:48:29;;;;;;;9.20;7.50;;;9.30;66.60;;;;;;5086188;28;20046;-93
2022/11/29 14:51:16;;;;;;;7.47;6.78;;;9.30;66.60;;;;;;5093172;28;20072;-93
2022/11/29 14:54:19;;;;;;;8.10;7.28;;;9.20;66.50;;;;;;5098807;28;20038;-92
2022/11/29 14:57:43;;;;;;;9.43;6.63;;;9.20;66.50;;;;;;5091372;28;20051;-92
2022/11/29 15:00:28;;;;;;;;;;;9.10;66.40;;;;;;5087910;28;20044;-90
2022/11/29 15:03:19;;;;;;;8.95;7.32;;;9.10;66.50;;;;;;5071774;28;19938;-89
2022/11/29 15:06:06;;;;;;;7.50;6.65;;;9.00;66.50;;;;;;5080032;28;20078;-90
2022/11/29 15:09:04;;;;;;;7.88;7.07;;;9.00;66.50;;;;;;5085188;28;20452;-89
2022/11/29 15:11:56;;;;;;;7.60;6.57;;;8.90;66.40;;;;;;5086249;28;20051;-89
2022/11/29 15:15:05;;;;;;;7.05;6.35;;;8.90;66.60;;;;;;5077542;28;20042;-89
2022/11/29 15:17:59;;;;;;;6.82;6.10;;;8.80;66.40;;;;;;5088381;28;20121;-91
2022/11/29 15:21:12;;;;;;;7.53;6.70;;;8.70;66.40;;;;;;5091677;28;20043;-90
2022/11/29 15:24:05;;;;;;;6.88;6.18;;;8.70;66.50;;;;;;5091607;28;20413;-90
2022/11/29 15:26:58;;;;;;;7.30;6.60;;;8.60;66.40;;;;;;5078672;28;20094;-91
2022/11/29 15:29:47;;;;;;;7.32;6.60;;;8.60;66.50;;;;;;5067281;28;20632;-90
2022/11/29 15:32:31;;;;;;;7.15;6.45;;;8.50;66.40;;;;;;5077148;28;20070;-93